Time;durP1;ratioP1;P1;durP2;ratioP2;P2;SDS_P1;SDS_P2;PMS_P1;PMS_P2;Temp;Humidity;BMP_temperature;BMP_pressure;BME280_temperature;BME280_humidity;BME280_pressure;Samples;Min_cycle;Max_cycle;Signal;HPM_P1;HPM_P2
2023/03/09 00:01:36;;;;;;;1.70;1.50;;;11.20;98.00;;;;;;5051877;28;20467;-68
2023/03/09 00:04:04;;;;;;;1.83;1.50;;;11.30;98.00;;;;;;5034810;28;20464;-68
2023/03/09 00:06:32;;;;;;;1.30;1.30;;;11.30;98.00;;;;;;5051756;28;20463;-68
2023/03/09 00:09:04;;;;;;;2.50;1.33;;;11.30;98.00;;;;;;5051931;28;20964;-68
2023/03/09 00:11:32;;;;;;;1.93;1.67;;;11.30;98.00;;;;;;5051723;28;20486;-68
2023/03/09 00:13:59;;;;;;;1.90;1.40;;;11.30;98.00;;;;;;5051882;28;20458;-68
2023/03/09 00:16:36;;;;;;;3.47;1.60;;;11.30;98.00;;;;;;5052011;28;20460;-68
2023/03/09 00:19:03;;;;;;;2.03;1.53;;;11.20;98.00;;;;;;5051731;28;21006;-68
2023/03/09 00:21:36;;;;;;;2.93;1.40;;;11.30;98.00;;;;;;5051719;28;21012;-68
2023/03/09 00:24:08;;;;;;;1.97;1.53;;;11.30;98.00;;;;;;5051641;28;20539;-68
2023/03/09 00:26:38;;;;;;;2.20;1.50;;;11.30;98.00;;;;;;5051065;28;20528;-68
2023/03/09 00:29:06;;;;;;;2.13;1.53;;;11.20;98.00;;;;;;5051503;28;20461;-68
2023/03/09 00:31:34;;;;;;;1.87;1.50;;;11.20;98.00;;;;;;5051400;28;20495;-68
2023/03/09 00:34:01;;;;;;;1.73;1.43;;;11.20;98.00;;;;;;5051860;28;20468;-69
2023/03/09 00:36:28;;;;;;;1.50;1.30;;;11.20;98.00;;;;;;5051689;28;20457;-68
2023/03/09 00:38:57;;;;;;;3.60;1.30;;;11.20;98.00;;;;;;5034002;28;20487;-67
2023/03/09 00:41:30;;;;;;;1.60;1.40;;;11.20;98.00;;;;;;5051779;28;20451;-68
2023/03/09 00:43:57;;;;;;;1.20;1.20;;;11.10;98.00;;;;;;5051719;28;20470;-68
2023/03/09 00:46:24;;;;;;;2.53;1.90;;;11.10;98.00;;;;;;5051713;28;20460;-68
2023/03/09 00:48:52;;;;;;;1.43;1.13;;;11.10;98.00;;;;;;5051819;28;20592;-68
2023/03/09 00:51:20;;;;;;;1.93;1.17;;;11.10;98.00;;;;;;5051742;28;20948;-68
2023/03/09 00:53:47;;;;;;;2.07;1.30;;;11.10;98.00;;;;;;5051728;28;20454;-68
2023/03/09 00:56:18;;;;;;;1.50;1.10;;;11.10;98.00;;;;;;5051874;28;20460;-68
2023/03/09 00:58:47;;;;;;;1.50;1.20;;;11.10;98.00;;;;;;5033815;28;20479;-69
2023/03/09 01:01:17;;;;;;;1.53;1.10;;;11.10;98.00;;;;;;5051627;28;20920;-69
2023/03/09 01:03:45;;;;;;;2.17;1.20;;;11.00;98.00;;;;;;5034550;28;20831;-68
2023/03/09 01:06:13;;;;;;;1.33;1.10;;;11.00;98.00;;;;;;5051745;28;20457;-68
2023/03/09 01:08:40;;;;;;;1.30;1.00;;;11.00;98.00;;;;;;5051813;28;20457;-68
2023/03/09 01:11:09;;;;;;;1.10;0.90;;;11.00;98.00;;;;;;5052038;28;20483;-69
2023/03/09 01:13:37;;;;;;;1.60;1.20;;;10.90;98.00;;;;;;5051730;28;20869;-68
2023/03/09 01:16:06;;;;;;;1.20;1.00;;;10.90;98.00;;;;;;5051373;28;20456;-68
2023/03/09 01:18:43;;;;;;;1.50;1.10;;;10.80;98.00;;;;;;5051469;28;20860;-69
2023/03/09 01:21:11;;;;;;;1.10;1.00;;;10.80;98.00;;;;;;5033760;28;20469;-68
2023/03/09 01:23:40;;;;;;;1.30;1.00;;;10.80;98.00;;;;;;5051098;28;20450;-68
2023/03/09 01:26:08;;;;;;;1.20;1.00;;;10.80;98.00;;;;;;5051374;28;20458;-68
2023/03/09 01:28:36;;;;;;;1.10;1.07;;;10.80;98.00;;;;;;5051276;28;20857;-68
2023/03/09 01:31:09;;;;;;;4.00;1.10;;;10.80;98.00;;;;;;5051454;28;20967;-68
2023/03/09 01:33:37;;;;;;;1.30;1.13;;;10.70;98.00;;;;;;5051040;28;20462;-68
2023/03/09 01:36:07;;;;;;;1.10;1.00;;;10.70;98.00;;;;;;5051589;28;20460;-68
2023/03/09 01:38:34;;;;;;;1.10;0.90;;;10.60;98.00;;;;;;5055032;28;20490;-68
2023/03/09 01:41:05;;;;;;;1.10;1.00;;;10.60;98.00;;;;;;5055024;28;20836;-69
2023/03/09 01:43:39;;;;;;;1.20;1.00;;;10.60;98.00;;;;;;5054879;28;20457;-68
2023/03/09 01:46:35;;;;;;;1.53;1.10;;;10.50;98.00;;;;;;5055125;28;20457;-68
2023/03/09 01:49:07;;;;;;;1.10;0.90;;;10.40;98.00;;;;;;5055183;28;20561;-69
2023/03/09 01:51:40;;;;;;;1.13;0.97;;;10.50;98.00;;;;;;5055060;28;20936;-69
2023/03/09 01:54:14;;;;;;;1.10;0.90;;;10.50;98.00;;;;;;5055293;28;20465;-68
2023/03/09 01:56:43;;;;;;;1.10;1.00;;;10.50;98.00;;;;;;5055014;28;20476;-68
2023/03/09 01:59:13;;;;;;;1.87;1.10;;;10.50;98.00;;;;;;5055109;28;20878;-68
2023/03/09 02:01:44;;;;;;;1.10;0.90;;;10.40;98.00;;;;;;5054997;28;20459;-69
2023/03/09 02:04:16;;;;;;;1.20;0.97;;;10.40;98.00;;;;;;5055310;28;20472;-68
2023/03/09 02:06:45;;;;;;;2.07;1.10;;;10.30;98.00;;;;;;5054956;28;20456;-68
2023/03/09 02:09:20;;;;;;;1.33;1.00;;;10.30;98.00;;;;;;5055031;28;20497;-68
2023/03/09 02:11:48;;;;;;;1.20;1.00;;;10.30;98.00;;;;;;5054548;28;20558;-68
2023/03/09 02:14:16;;;;;;;1.13;0.93;;;10.40;98.00;;;;;;5054504;28;20503;-68
2023/03/09 02:16:44;;;;;;;1.10;0.90;;;10.30;98.00;;;;;;5054638;28;20460;-68
2023/03/09 02:19:20;;;;;;;1.10;0.90;;;10.30;98.00;;;;;;5054505;28;20496;-69
2023/03/09 02:21:51;;;;;;;1.10;0.93;;;10.30;98.00;;;;;;5054479;28;20857;-68
2023/03/09 02:24:25;;;;;;;1.20;0.93;;;10.30;98.00;;;;;;5054605;28;20456;-69
2023/03/09 02:27:00;;;;;;;1.10;1.00;;;10.30;98.00;;;;;;5054183;28;20927;-68
2023/03/09 02:29:30;;;;;;;1.10;0.90;;;10.20;98.00;;;;;;5054429;28;20457;-68
2023/03/09 02:31:58;;;;;;;1.10;0.90;;;10.20;98.00;;;;;;5054148;28;20515;-68
2023/03/09 02:34:25;;;;;;;1.20;1.00;;;10.20;98.00;;;;;;5036584;28;20877;-68
2023/03/09 02:36:53;;;;;;;1.10;1.00;;;10.10;98.00;;;;;;5054074;28;20455;-68
2023/03/09 02:39:30;;;;;;;1.20;1.03;;;10.00;98.00;;;;;;5054171;28;21000;-68
2023/03/09 02:41:58;;;;;;;1.20;1.00;;;10.00;98.00;;;;;;5053976;28;20461;-68
2023/03/09 02:44:30;;;;;;;1.10;0.90;;;10.00;98.00;;;;;;5036468;28;21011;-68
2023/03/09 02:47:00;;;;;;;1.23;1.07;;;10.10;98.00;;;;;;5054031;28;20463;-68
2023/03/09 02:49:27;;;;;;;1.10;0.90;;;10.10;98.00;;;;;;5053461;28;20961;-68
2023/03/09 02:51:54;;;;;;;1.10;0.90;;;10.20;98.00;;;;;;5053772;28;20512;-68
2023/03/09 02:54:21;;;;;;;1.10;1.00;;;10.10;98.00;;;;;;5053844;28;20503;-68
2023/03/09 02:56:49;;;;;;;1.10;0.90;;;10.10;98.00;;;;;;5035825;28;20461;-68
2023/03/09 02:59:16;;;;;;;1.20;1.07;;;10.20;98.00;;;;;;5053362;28;20852;-68
2023/03/09 03:01:44;;;;;;;1.20;1.00;;;10.10;98.00;;;;;;5053127;28;20480;-68
2023/03/09 03:04:11;;;;;;;1.67;1.03;;;10.10;98.00;;;;;;5053986;28;20462;-68
2023/03/09 03:06:39;;;;;;;1.10;0.90;;;10.10;98.00;;;;;;5053992;28;20465;-68
2023/03/09 03:09:06;;;;;;;1.10;1.00;;;10.10;98.00;;;;;;5053927;28;20532;-69
2023/03/09 03:11:33;;;;;;;1.20;1.00;;;10.20;98.00;;;;;;5053669;28;20461;-68
2023/03/09 03:14:00;;;;;;;1.10;1.00;;;10.20;98.00;;;;;;5054371;28;20457;-69
2023/03/09 03:16:28;;;;;;;1.10;1.00;;;10.30;98.00;;;;;;5035799;28;20453;-68
2023/03/09 03:18:59;;;;;;;1.23;1.00;;;10.30;98.00;;;;;;5053259;28;20486;-68
2023/03/09 03:21:26;;;;;;;2.80;1.00;;;10.20;98.00;;;;;;5036021;28;20952;-68
2023/03/09 03:23:54;;;;;;;1.10;1.00;;;10.10;98.00;;;;;;5053149;28;20470;-68
2023/03/09 03:26:23;;;;;;;2.23;1.43;;;10.00;98.00;;;;;;5053314;28;20462;-69
2023/03/09 03:28:50;;;;;;;1.10;1.00;;;9.90;98.00;;;;;;5053035;28;20509;-68
2023/03/09 03:31:17;;;;;;;1.10;1.00;;;9.80;98.00;;;;;;5053210;28;20511;-68
2023/03/09 03:33:44;;;;;;;1.20;1.10;;;9.70;98.00;;;;;;5052927;28;20472;-68
2023/03/09 03:36:13;;;;;;;1.10;1.00;;;9.60;98.00;;;;;;5053077;28;20483;-68
2023/03/09 03:38:41;;;;;;;1.30;1.10;;;9.60;98.00;;;;;;5035422;28;20482;-69
2023/03/09 03:41:08;;;;;;;3.00;1.00;;;9.50;98.00;;;;;;5052923;28;20489;-68
2023/03/09 03:43:35;;;;;;;1.20;1.00;;;9.50;98.00;;;;;;5052823;28;20898;-68
2023/03/09 03:46:03;;;;;;;1.23;1.10;;;9.40;98.00;;;;;;5052681;28;20453;-68
2023/03/09 03:48:30;;;;;;;1.10;1.00;;;9.40;98.00;;;;;;5052927;28;20457;-68
2023/03/09 03:50:57;;;;;;;1.10;0.90;;;9.40;98.00;;;;;;5052921;28;20511;-68
2023/03/09 03:53:25;;;;;;;1.10;1.00;;;9.40;98.00;;;;;;5052811;28;20456;-68
2023/03/09 03:55:52;;;;;;;1.10;1.00;;;9.40;98.00;;;;;;5052738;28;20469;-68
2023/03/09 03:58:19;;;;;;;1.10;0.90;;;9.50;98.00;;;;;;5052718;28;20488;-68
2023/03/09 04:00:46;;;;;;;1.30;1.10;;;9.50;98.00;;;;;;5051849;28;20931;-68
2023/03/09 04:03:13;;;;;;;1.10;1.00;;;9.50;98.00;;;;;;5052966;28;20943;-68
2023/03/09 04:05:41;;;;;;;4.00;1.10;;;9.60;98.00;;;;;;5053054;28;20467;-67
2023/03/09 04:08:08;;;;;;;1.30;1.00;;;9.50;98.00;;;;;;5035411;28;20544;-68
2023/03/09 04:10:40;;;;;;;1.10;0.90;;;9.60;98.00;;;;;;5035141;28;20473;-68
2023/03/09 04:13:08;;;;;;;1.10;0.90;;;9.60;98.00;;;;;;5052523;28;20454;-68
2023/03/09 04:15:36;;;;;;;1.20;1.00;;;9.60;98.00;;;;;;5052324;28;20457;-67
2023/03/09 04:18:04;;;;;;;1.10;1.00;;;9.70;98.00;;;;;;5052226;28;20464;-68
2023/03/09 04:20:31;;;;;;;1.40;1.00;;;9.80;98.00;;;;;;5052521;28;20456;-68
2023/03/09 04:22:58;;;;;;;2.60;1.17;;;9.70;98.00;;;;;;5051854;28;20463;-67
2023/03/09 04:25:25;;;;;;;1.10;1.00;;;9.80;98.00;;;;;;5052147;28;20809;-68
2023/03/09 04:27:54;;;;;;;2.23;1.20;;;9.80;98.00;;;;;;5052098;28;20970;-68
2023/03/09 04:30:22;;;;;;;2.60;1.00;;;9.80;98.00;;;;;;5052289;28;20454;-68
2023/03/09 04:32:49;;;;;;;1.33;1.23;;;9.80;98.00;;;;;;5034575;28;20496;-68
2023/03/09 04:35:17;;;;;;;1.10;0.90;;;9.90;98.00;;;;;;5052177;28;20461;-68
2023/03/09 04:37:44;;;;;;;1.10;1.00;;;9.80;98.00;;;;;;5051636;28;20461;-68
2023/03/09 04:40:12;;;;;;;1.10;0.90;;;9.80;98.00;;;;;;5051574;28;20576;-68
2023/03/09 04:42:39;;;;;;;1.20;1.10;;;9.80;98.00;;;;;;5051932;28;20450;-68
2023/03/09 04:45:09;;;;;;;1.67;1.33;;;9.80;98.00;;;;;;5052054;28;20460;-68
2023/03/09 04:47:36;;;;;;;1.10;0.90;;;9.70;98.00;;;;;;5052010;28;20468;-68
2023/03/09 04:50:03;;;;;;;4.00;1.20;;;9.80;98.00;;;;;;5052013;28;20869;-67
2023/03/09 04:52:31;;;;;;;1.30;1.20;;;9.70;98.00;;;;;;5051963;28;20461;-68
2023/03/09 04:54:58;;;;;;;1.40;1.20;;;9.70;98.00;;;;;;5052223;28;20845;-68
2023/03/09 04:57:26;;;;;;;1.20;1.10;;;9.70;98.00;;;;;;5034237;28;20516;-68
2023/03/09 04:59:54;;;;;;;1.77;1.10;;;9.80;98.00;;;;;;5051767;28;20617;-68
2023/03/09 05:02:24;;;;;;;1.60;1.23;;;9.80;98.00;;;;;;5052108;28;20477;-68
2023/03/09 05:04:51;;;;;;;1.30;0.90;;;9.80;98.00;;;;;;5052298;28;20484;-67
2023/03/09 05:07:18;;;;;;;1.30;1.10;;;9.80;98.00;;;;;;5034379;28;20450;-68
2023/03/09 05:09:48;;;;;;;2.40;1.20;;;9.80;98.00;;;;;;5051708;28;20827;-68
2023/03/09 05:12:15;;;;;;;1.40;1.03;;;9.80;98.00;;;;;;5054250;28;20846;-68
2023/03/09 05:14:42;;;;;;;1.20;1.20;;;9.80;98.00;;;;;;5055581;28;20461;-68
2023/03/09 05:17:10;;;;;;;1.10;1.00;;;9.80;98.00;;;;;;5055729;28;20829;-68
2023/03/09 05:19:39;;;;;;;1.17;1.00;;;9.80;98.00;;;;;;5055404;28;20515;-68
2023/03/09 05:22:07;;;;;;;1.33;1.10;;;9.80;98.00;;;;;;5055484;28;20545;-68
2023/03/09 05:24:34;;;;;;;1.60;1.10;;;9.80;98.00;;;;;;5055590;28;20593;-68
2023/03/09 05:27:01;;;;;;;1.43;1.10;;;9.90;98.00;;;;;;5055350;28;20962;-68
2023/03/09 05:29:28;;;;;;;4.07;1.47;;;9.90;98.00;;;;;;5055540;28;20865;-68
2023/03/09 05:31:56;;;;;;;2.60;1.73;;;9.90;98.00;;;;;;5055542;28;20465;-68
2023/03/09 05:34:24;;;;;;;1.20;1.10;;;9.90;98.00;;;;;;5055397;28;20835;-68
2023/03/09 05:36:53;;;;;;;1.10;1.00;;;9.80;98.00;;;;;;5055213;28;20460;-68
2023/03/09 05:39:20;;;;;;;2.13;1.10;;;9.80;98.00;;;;;;5055400;28;20893;-68
2023/03/09 05:41:47;;;;;;;1.40;1.20;;;9.80;98.00;;;;;;5055322;28;20453;-68
2023/03/09 05:44:14;;;;;;;1.97;1.80;;;9.80;98.00;;;;;;5055323;28;20503;-68
2023/03/09 05:46:42;;;;;;;1.53;1.37;;;9.90;98.00;;;;;;5054757;28;20462;-67
2023/03/09 05:49:10;;;;;;;2.17;1.40;;;9.90;98.00;;;;;;5055322;28;20468;-68
2023/03/09 05:51:38;;;;;;;1.40;1.30;;;9.90;98.00;;;;;;5055092;28;20450;-68
2023/03/09 05:54:07;;;;;;;1.37;1.03;;;9.90;98.00;;;;;;5055192;28;20630;-68
2023/03/09 05:56:34;;;;;;;10.33;1.50;;;9.90;98.00;;;;;;5054802;28;20461;-68
2023/03/09 05:59:02;;;;;;;1.40;1.10;;;9.90;98.00;;;;;;5055056;28;20486;-68
2023/03/09 06:01:30;;;;;;;1.30;1.30;;;10.00;98.00;;;;;;5055072;28;20458;-68
2023/03/09 06:03:57;;;;;;;1.67;1.13;;;10.00;98.00;;;;;;5055465;28;20458;-68
2023/03/09 06:06:25;;;;;;;1.83;1.33;;;10.00;98.00;;;;;;5054861;28;20468;-68
2023/03/09 06:08:52;;;;;;;1.40;1.30;;;10.00;98.00;;;;;;5054406;28;20453;-68
2023/03/09 06:11:22;;;;;;;3.40;1.47;;;9.90;98.00;;;;;;5054677;28;20456;-68
2023/03/09 06:13:54;;;;;;;1.90;1.40;;;10.00;98.00;;;;;;5054548;28;20462;-68
2023/03/09 06:16:21;;;;;;;1.20;1.10;;;9.90;98.00;;;;;;5054699;28;20493;-68
2023/03/09 06:18:50;;;;;;;1.40;1.23;;;9.90;98.00;;;;;;5054602;28;20458;-68
2023/03/09 06:21:17;;;;;;;1.93;1.10;;;9.90;98.00;;;;;;5054699;28;20922;-68
2023/03/09 06:23:44;;;;;;;3.57;1.60;;;9.90;98.00;;;;;;5053577;28;20456;-68
2023/03/09 06:26:13;;;;;;;2.03;1.30;;;9.80;98.00;;;;;;5054434;28;20960;-68
2023/03/09 06:28:42;;;;;;;4.13;1.50;;;9.80;98.00;;;;;;5054547;28;20456;-68
2023/03/09 06:31:11;;;;;;;1.10;1.07;;;9.90;98.00;;;;;;5054587;28;20974;-68
2023/03/09 06:33:39;;;;;;;2.13;1.40;;;9.90;98.00;;;;;;5054200;28;20552;-68
2023/03/09 06:36:06;;;;;;;1.30;1.17;;;9.90;98.00;;;;;;5054427;28;20461;-68
2023/03/09 06:38:35;;;;;;;1.17;1.10;;;9.90;98.00;;;;;;5054210;28;20458;-67
2023/03/09 06:41:03;;;;;;;1.20;1.10;;;9.90;98.00;;;;;;5053981;28;20490;-68
2023/03/09 06:43:30;;;;;;;3.10;1.30;;;10.00;98.00;;;;;;5054305;28;20933;-67
2023/03/09 06:46:00;;;;;;;1.40;1.20;;;10.00;98.00;;;;;;5053890;28;20461;-68
2023/03/09 06:48:28;;;;;;;1.30;1.00;;;10.00;98.00;;;;;;5054215;28;20456;-67
2023/03/09 06:50:55;;;;;;;2.10;1.47;;;10.10;98.00;;;;;;5054127;28;20516;-67
2023/03/09 06:53:22;;;;;;;1.60;1.20;;;10.10;98.00;;;;;;5054204;28;20463;-68
2023/03/09 06:55:49;;;;;;;2.90;2.13;;;10.20;98.00;;;;;;5054260;28;20972;-68
2023/03/09 06:58:17;;;;;;;2.53;1.27;;;10.20;98.00;;;;;;5054174;28;20463;-67
2023/03/09 07:00:46;;;;;;;1.50;1.20;;;10.20;98.00;;;;;;5053906;28;20487;-66
2023/03/09 07:03:19;;;;;;;3.00;1.60;;;10.30;98.00;;;;;;5053896;28;20459;-65
2023/03/09 07:05:46;;;;;;;5.63;1.30;;;10.30;98.00;;;;;;5053708;28;20472;-64
2023/03/09 07:08:13;;;;;;;1.20;1.20;;;10.30;98.00;;;;;;5053918;28;20450;-65
2023/03/09 07:10:40;;;;;;;1.40;1.20;;;10.30;98.00;;;;;;5053681;28;20450;-64
2023/03/09 07:13:13;;;;;;;1.90;1.43;;;10.40;98.00;;;;;;5053520;28;20489;-65
2023/03/09 07:15:41;;;;;;;3.77;1.30;;;10.40;98.00;;;;;;5053729;28;20496;-66
2023/03/09 07:18:08;;;;;;;1.40;1.10;;;10.40;98.00;;;;;;5053647;28;20814;-64
2023/03/09 07:20:40;;;;;;;1.60;1.10;;;10.40;98.00;;;;;;5053673;28;20505;-64
2023/03/09 07:23:09;;;;;;;4.80;1.20;;;10.40;98.00;;;;;;5053556;28;20528;-65
2023/03/09 07:25:37;;;;;;;2.63;1.40;;;10.50;98.00;;;;;;5053446;28;20921;-64
2023/03/09 07:28:06;;;;;;;2.40;1.47;;;10.50;98.00;;;;;;5053294;28;20457;-65
2023/03/09 07:30:36;;;;;;;3.27;1.60;;;10.50;98.00;;;;;;5053272;28;20462;-65
2023/03/09 07:33:03;;;;;;;1.73;1.10;;;10.50;98.00;;;;;;5035320;28;20982;-65
2023/03/09 07:35:30;;;;;;;1.40;1.20;;;10.60;98.00;;;;;;5053110;28;20814;-65
2023/03/09 07:37:59;;;;;;;1.70;1.10;;;10.70;98.00;;;;;;5053103;28;20458;-64
2023/03/09 07:40:27;;;;;;;1.57;1.30;;;10.80;98.00;;;;;;5053218;28;20857;-66
2023/03/09 07:42:54;;;;;;;1.10;0.90;;;10.80;98.00;;;;;;5052068;28;20461;-65
2023/03/09 07:45:23;;;;;;;3.50;1.20;;;10.90;98.00;;;;;;5035409;28;20453;-65
2023/03/09 07:47:50;;;;;;;1.50;1.10;;;10.90;98.00;;;;;;5053156;28;20456;-66
2023/03/09 07:50:18;;;;;;;1.50;1.13;;;11.00;98.00;;;;;;5053243;28;20480;-64
2023/03/09 07:52:49;;;;;;;2.37;1.50;;;11.00;98.00;;;;;;5053117;28;20464;-64
2023/03/09 07:55:21;;;;;;;3.20;1.20;;;11.00;98.00;;;;;;5052962;28;20820;-66
2023/03/09 07:57:49;;;;;;;2.67;1.70;;;11.10;98.00;;;;;;5053058;28;20519;-64
2023/03/09 08:00:22;;;;;;;1.50;1.23;;;11.20;98.00;;;;;;5052781;28;20489;-65
2023/03/09 08:02:49;;;;;;;2.07;1.20;;;11.20;98.00;;;;;;5052407;28;20888;-65
2023/03/09 08:05:18;;;;;;;1.27;1.10;;;11.30;98.00;;;;;;5035183;28;20454;-63
2023/03/09 08:07:46;;;;;;;1.40;1.20;;;11.40;98.00;;;;;;5052374;28;20457;-64
2023/03/09 08:10:15;;;;;;;1.50;1.20;;;11.30;98.00;;;;;;5052627;28;20461;-65
2023/03/09 08:12:48;;;;;;;1.70;1.30;;;11.40;98.00;;;;;;5052467;28;20555;-64
2023/03/09 08:15:23;;;;;;;3.73;1.40;;;11.40;98.00;;;;;;5052224;28;20950;-64
2023/03/09 08:17:51;;;;;;;1.13;1.00;;;11.50;98.00;;;;;;5052196;28;20551;-63
2023/03/09 08:20:18;;;;;;;2.33;1.30;;;11.50;98.00;;;;;;5052356;28;20563;-65
2023/03/09 08:22:45;;;;;;;1.53;1.20;;;11.60;98.00;;;;;;5052168;28;20470;-65
2023/03/09 08:25:12;;;;;;;1.20;1.10;;;11.70;98.00;;;;;;5052373;28;20529;-63
2023/03/09 08:27:40;;;;;;;1.70;1.20;;;11.80;98.00;;;;;;5052089;28;20469;-64
2023/03/09 08:30:12;;;;;;;6.83;1.73;;;11.90;98.00;;;;;;5052132;28;20942;-65
2023/03/09 08:32:39;;;;;;;1.40;1.10;;;12.00;98.00;;;;;;5051949;28;20461;-64
2023/03/09 08:35:07;;;;;;;1.43;1.10;;;12.00;98.00;;;;;;5051230;28;20452;-66
2023/03/09 08:37:35;;;;;;;1.50;1.10;;;12.10;98.00;;;;;;5033754;28;20459;-63
2023/03/09 08:40:02;;;;;;;1.83;1.30;;;12.20;98.00;;;;;;5051483;28;20988;-64
2023/03/09 08:42:29;;;;;;;7.60;1.80;;;12.40;98.00;;;;;;5051864;28;20453;-66
2023/03/09 08:44:56;;;;;;;2.47;1.10;;;12.60;98.00;;;;;;5052443;28;20936;-65
2023/03/09 08:47:25;;;;;;;1.60;1.20;;;12.60;98.00;;;;;;5051621;28;20550;-65
2023/03/09 08:49:52;;;;;;;1.90;1.20;;;12.60;98.00;;;;;;5052235;28;20463;-64
2023/03/09 08:52:19;;;;;;;1.40;1.20;;;12.50;98.00;;;;;;5051733;28;20461;-66
2023/03/09 08:54:50;;;;;;;1.20;1.03;;;12.40;98.00;;;;;;5046092;28;20465;-65
2023/03/09 08:57:17;;;;;;;1.23;1.03;;;12.30;98.00;;;;;;5027944;28;20468;-65
2023/03/09 08:59:48;;;;;;;1.60;1.20;;;12.30;98.00;;;;;;5036245;28;20816;-65
2023/03/09 09:02:15;;;;;;;1.20;1.00;;;12.30;98.00;;;;;;5051745;28;20922;-65
2023/03/09 09:04:44;;;;;;;2.50;1.40;;;12.20;98.00;;;;;;5033988;28;20463;-67
2023/03/09 09:07:18;;;;;;;1.50;1.20;;;12.10;98.00;;;;;;5051801;28;20953;-66
2023/03/09 09:09:45;;;;;;;5.50;1.10;;;12.00;98.00;;;;;;5050990;28;20459;-64
2023/03/09 09:12:13;;;;;;;1.40;1.20;;;12.00;98.00;;;;;;5051552;28;20463;-61
2023/03/09 09:14:40;;;;;;;1.40;1.13;;;12.10;98.00;;;;;;5051551;28;20515;-62
2023/03/09 09:17:08;;;;;;;3.10;1.57;;;12.10;98.00;;;;;;5051334;28;20471;-63
2023/03/09 09:19:35;;;;;;;1.10;1.10;;;12.10;98.00;;;;;;5051345;28;20547;-63
2023/03/09 09:22:11;;;;;;;1.20;1.00;;;12.00;98.00;;;;;;5051576;28;20462;-65
2023/03/09 09:24:38;;;;;;;3.10;1.10;;;12.10;98.00;;;;;;5051714;28;20463;-67
2023/03/09 09:27:07;;;;;;;3.27;1.20;;;12.10;98.00;;;;;;5051403;28;20820;-65
2023/03/09 09:29:35;;;;;;;1.93;1.20;;;12.10;98.00;;;;;;5051520;28;20513;-66
2023/03/09 09:32:03;;;;;;;3.57;1.20;;;12.10;98.00;;;;;;5051312;28;20863;-66
2023/03/09 09:34:32;;;;;;;1.60;1.10;;;12.10;98.00;;;;;;5051594;28;21034;-65
2023/03/09 09:37:00;;;;;;;1.20;1.00;;;12.10;98.00;;;;;;5040330;28;20452;-64
2023/03/09 09:39:32;;;;;;;1.20;1.00;;;12.10;98.00;;;;;;5030583;28;20459;-66
2023/03/09 09:42:04;;;;;;;1.33;1.30;;;11.90;98.00;;;;;;5012102;28;20597;-64
2023/03/09 09:44:36;;;;;;;1.10;0.97;;;11.70;98.00;;;;;;5011920;28;20511;-66
2023/03/09 09:47:07;;;;;;;1.17;1.00;;;11.70;98.00;;;;;;4994269;28;20461;-65
2023/03/09 09:49:41;;;;;;;1.20;1.17;;;11.80;98.00;;;;;;5011948;28;20454;-65
2023/03/09 09:52:44;;;;;;;1.20;1.00;;;12.10;98.00;;;;;;4995060;28;21013;-65
2023/03/09 09:55:19;;;;;;;1.70;1.47;;;12.00;98.00;;;;;;5011755;28;20470;-64
2023/03/09 09:57:50;;;;;;;1.60;1.30;;;12.20;98.00;;;;;;5011777;28;20818;-65
2023/03/09 10:00:21;;;;;;;1.87;1.10;;;12.00;98.00;;;;;;5015603;28;20488;-64
2023/03/09 10:03:00;;;;;;;1.30;1.20;;;11.80;98.00;;;;;;5025669;28;20481;-63
2023/03/09 10:05:35;;;;;;;1.40;1.10;;;11.70;98.00;;;;;;5037367;28;20458;-65
2023/03/09 10:08:13;;;;;;;1.87;1.30;;;11.70;98.00;;;;;;5054760;28;20457;-64
2023/03/09 10:10:44;;;;;;;1.37;1.30;;;11.70;98.00;;;;;;5054597;28;20455;-64
2023/03/09 10:13:17;;;;;;;1.20;1.00;;;11.80;98.00;;;;;;5054253;28;20468;-65
2023/03/09 10:15:45;;;;;;;1.73;1.20;;;11.80;98.00;;;;;;5054708;28;20499;-63
2023/03/09 10:18:18;;;;;;;1.57;1.07;;;11.90;98.00;;;;;;5054585;28;20480;-64
2023/03/09 10:20:49;;;;;;;4.17;1.17;;;11.90;98.00;;;;;;5053984;28;20493;-64
2023/03/09 10:23:25;;;;;;;1.20;1.00;;;12.00;98.00;;;;;;5054195;28;20470;-66
2023/03/09 10:26:02;;;;;;;2.03;1.23;;;12.00;98.00;;;;;;5036983;28;20475;-65
2023/03/09 10:28:44;;;;;;;2.80;1.10;;;12.10;98.00;;;;;;5034288;28;20457;-65
2023/03/09 10:31:17;;;;;;;1.47;1.20;;;12.10;98.00;;;;;;5034432;28;20993;-66
2023/03/09 10:33:48;;;;;;;1.50;1.10;;;12.20;98.00;;;;;;5034329;28;21082;-64
2023/03/09 10:36:20;;;;;;;1.90;1.50;;;12.30;98.00;;;;;;5034389;28;20455;-64
2023/03/09 10:38:48;;;;;;;1.20;1.20;;;12.50;98.00;;;;;;5034209;28;20462;-64
2023/03/09 10:41:21;;;;;;;1.20;1.10;;;12.60;98.00;;;;;;5034372;28;20488;-64
2023/03/09 10:43:49;;;;;;;1.30;1.20;;;12.80;98.00;;;;;;5034198;28;20505;-64
2023/03/09 10:46:18;;;;;;;1.20;0.93;;;12.80;98.00;;;;;;5034359;28;20461;-65
2023/03/09 10:48:48;;;;;;;1.20;1.10;;;13.10;98.00;;;;;;5034469;28;21129;-65
2023/03/09 10:51:31;;;;;;;2.57;1.30;;;13.30;98.00;;;;;;5034517;28;20941;-65
2023/03/09 10:54:14;;;;;;;8.00;1.30;;;13.40;98.00;;;;;;5034656;28;20462;-65
2023/03/09 10:56:45;;;;;;;1.50;1.13;;;13.70;98.00;;;;;;5034583;28;20519;-64
2023/03/09 10:59:16;;;;;;;1.40;1.17;;;14.00;98.00;;;;;;5034428;28;20460;-67
2023/03/09 11:01:45;;;;;;;1.20;1.10;;;14.20;98.00;;;;;;5033633;28;20560;-66
2023/03/09 11:04:37;;;;;;;2.17;1.47;;;14.50;98.00;;;;;;5034051;28;20464;-64
2023/03/09 11:07:06;;;;;;;4.50;1.30;;;14.70;98.00;;;;;;5023674;28;20949;-65
2023/03/09 11:09:36;;;;;;;2.07;1.30;;;14.80;98.00;;;;;;5040391;28;20461;-65
2023/03/09 11:12:17;;;;;;;1.20;1.10;;;14.80;98.00;;;;;;5052995;28;20452;-65
2023/03/09 11:14:48;;;;;;;1.20;1.20;;;14.90;98.00;;;;;;5052763;28;20955;-65
2023/03/09 11:17:32;;;;;;;2.00;1.50;;;14.90;98.00;;;;;;5052702;28;20457;-66
2023/03/09 11:20:31;;;;;;;1.30;1.20;;;14.90;98.00;;;;;;5052803;28;20486;-65
2023/03/09 11:23:02;;;;;;;3.30;1.27;;;14.90;98.00;;;;;;5017595;28;20526;-67
2023/03/09 11:25:46;;;;;;;1.20;1.00;;;14.70;98.00;;;;;;5052799;28;20458;-64
2023/03/09 11:28:24;;;;;;;1.97;1.20;;;14.80;98.00;;;;;;5052332;28;20508;-64
2023/03/09 11:30:54;;;;;;;5.20;1.20;;;15.00;98.00;;;;;;5052539;28;20458;-65
2023/03/09 11:33:21;;;;;;;1.73;1.30;;;14.90;98.00;;;;;;5052325;28;20552;-64
2023/03/09 11:35:53;;;;;;;1.30;1.10;;;14.80;98.00;;;;;;5051914;28;20550;-64
2023/03/09 11:38:21;;;;;;;1.80;1.20;;;14.80;98.00;;;;;;5052482;28;20487;-65
2023/03/09 11:40:58;;;;;;;2.73;1.37;;;15.20;98.00;;;;;;5052075;28;21004;-63
2023/03/09 11:43:30;;;;;;;1.30;1.10;;;15.40;98.00;;;;;;5052200;28;20467;-64
2023/03/09 11:46:02;;;;;;;1.30;1.10;;;15.30;98.00;;;;;;5052177;28;20467;-64
2023/03/09 11:48:32;;;;;;;1.40;1.13;;;14.90;98.00;;;;;;5051989;28;20828;-66
2023/03/09 11:51:08;;;;;;;1.57;1.20;;;14.50;98.00;;;;;;5052189;28;20461;-65
2023/03/09 11:53:37;;;;;;;1.20;1.10;;;14.40;98.00;;;;;;5051821;28;20467;-64
2023/03/09 11:56:19;;;;;;;1.50;1.20;;;14.40;98.00;;;;;;5052143;28;20536;-67
2023/03/09 11:58:54;;;;;;;3.50;1.50;;;14.40;98.00;;;;;;5052269;28;20881;-64
2023/03/09 12:01:28;;;;;;;2.53;1.40;;;14.60;98.00;;;;;;5052223;28;20876;-65
2023/03/09 12:04:01;;;;;;;2.47;1.30;;;14.70;98.00;;;;;;5051586;28;20484;-64
2023/03/09 12:06:39;;;;;;;2.03;1.20;;;14.50;98.00;;;;;;5046726;28;20478;-65
2023/03/09 12:09:11;;;;;;;1.40;1.10;;;14.50;98.00;;;;;;5031317;28;20854;-64
2023/03/09 12:11:42;;;;;;;1.40;1.20;;;14.60;98.00;;;;;;5051393;28;20999;-64
2023/03/09 12:14:20;;;;;;;1.53;1.30;;;14.70;98.00;;;;;;5051854;28;20480;-65
2023/03/09 12:16:53;;;;;;;5.63;1.30;;;14.70;98.00;;;;;;5051501;28;20552;-65
2023/03/09 12:19:22;;;;;;;1.80;1.30;;;14.90;98.00;;;;;;5051920;28;20460;-67
2023/03/09 12:21:59;;;;;;;2.17;1.30;;;14.90;98.00;;;;;;5050634;28;20571;-64
2023/03/09 12:24:38;;;;;;;1.47;1.20;;;15.00;98.00;;;;;;5051538;28;20498;-63
2023/03/09 12:27:16;;;;;;;2.53;1.40;;;15.40;98.00;;;;;;5051360;28;20455;-64
2023/03/09 12:29:51;;;;;;;1.50;1.20;;;15.60;98.00;;;;;;5051379;28;20566;-65
2023/03/09 12:32:36;;;;;;;1.20;1.13;;;15.70;98.00;;;;;;5051250;28;20488;-64
2023/03/09 12:38:06;;;;;;;1.63;1.23;;;15.90;98.00;;;;;;5034026;28;20499;-65
2023/03/09 12:40:43;;;;;;;1.30;1.20;;;16.30;98.00;;;;;;5050762;28;20464;-64
2023/03/09 12:43:48;;;;;;;2.47;1.03;;;16.60;98.00;;;;;;5051127;28;20469;-64
2023/03/09 12:46:53;;;;;;;2.50;1.30;;;16.50;98.00;;;;;;5051149;28;20463;-64
2023/03/09 12:49:29;;;;;;;1.40;1.10;;;16.10;98.00;;;;;;5051281;28;20466;-65
2023/03/09 12:52:40;;;;;;;1.30;1.10;;;16.20;98.00;;;;;;5051155;28;20453;-65
2023/03/09 12:55:17;;;;;;;2.57;1.20;;;16.60;98.00;;;;;;5035788;28;20476;-64
2023/03/09 12:57:45;;;;;;;2.53;1.30;;;16.20;98.00;;;;;;5051104;28;20458;-64
2023/03/09 13:00:30;;;;;;;3.97;1.37;;;15.80;98.00;;;;;;5051195;28;20737;-64
2023/03/09 13:03:02;;;;;;;2.50;1.30;;;15.50;98.00;;;;;;5050261;28;20955;-64
2023/03/09 13:05:41;;;;;;;4.33;1.30;;;15.20;98.00;;;;;;5050881;28;20458;-65
2023/03/09 13:08:27;;;;;;;5.17;1.20;;;15.10;98.00;;;;;;5050814;28;20508;-63